Time;durP1;ratioP1;P1;durP2;ratioP2;P2;SDS_P1;SDS_P2;PMS_P1;PMS_P2;Temp;Humidity;BMP_temperature;BMP_pressure;BME280_temperature;BME280_humidity;BME280_pressure;Samples;Min_cycle;Max_cycle;Signal;HPM_P1;HPM_P2
2022/05/30 00:00:21;;;;;;;10.57;1.92;;;;;;;12.91;78.01;100879.56;5079016;28;20130;-76
2022/05/30 00:02:49;;;;;;;10.25;2.15;;;;;;;12.89;77.98;100893.88;5085377;28;20463;-76
2022/05/30 00:05:17;;;;;;;11.07;2.10;;;;;;;12.88;78.37;100894.28;5076346;28;20048;-76
2022/05/30 00:07:45;;;;;;;13.48;3.00;;;;;;;12.88;78.17;100892.28;5076701;28;20358;-77
2022/05/30 00:10:13;;;;;;;15.68;2.08;;;;;;;12.88;77.89;100889.53;5068088;28;20086;-76
2022/05/30 00:12:40;;;;;;;9.20;1.90;;;;;;;12.84;78.38;100891.53;5075570;28;20079;-78
2022/05/30 00:15:10;;;;;;;9.90;2.67;;;;;;;12.82;78.73;100879.22;5080389;28;20048;-76
2022/05/30 00:17:37;;;;;;;6.88;1.65;;;;;;;12.80;78.44;100882.41;5074498;28;20040;-76
2022/05/30 00:20:05;;;;;;;8.75;1.95;;;;;;;12.79;78.18;100885.59;5074491;28;20060;-76
2022/05/30 00:22:32;;;;;;;6.57;1.60;;;;;;;12.78;78.00;100868.16;5074074;28;20071;-77
2022/05/30 00:24:58;;;;;;;14.30;2.30;;;;;;;12.79;78.00;100866.16;5076401;28;20531;-77
2022/05/30 00:27:25;;;;;;;15.25;2.13;;;;;;;12.78;78.66;100870.94;5078928;28;20052;-77
2022/05/30 00:29:52;;;;;;;7.43;1.95;;;;;;;12.79;79.24;100860.63;5080717;28;20055;-76
2022/05/30 00:32:18;;;;;;;10.52;1.98;;;;;;;12.76;79.90;100867.78;5082701;28;20392;-78
2022/05/30 00:34:45;;;;;;;17.10;3.03;;;;;;;12.78;79.53;100870.16;5088522;28;20052;-77
2022/05/30 00:37:11;;;;;;;10.45;2.38;;;;;;;12.79;79.09;100872.50;5078738;28;20047;-77
2022/05/30 00:39:38;;;;;;;13.95;2.30;;;;;;;12.73;79.30;100867.81;5083608;28;20068;-76
2022/05/30 00:42:15;;;;;;;18.17;2.97;;;;;;;12.74;79.32;100874.94;5089499;28;20054;-76
2022/05/30 00:44:47;;;;;;;8.70;1.98;;;;;;;12.76;79.36;100862.22;5077416;28;20040;-76
2022/05/30 00:47:14;;;;;;;11.57;2.10;;;;;;;12.77;79.16;100863.03;5082380;28;20097;-76
2022/05/30 00:49:43;;;;;;;11.70;2.03;;;;;;;12.73;79.87;100862.28;5084834;28;20048;-75
2022/05/30 00:52:16;;;;;;;12.07;2.67;;;;;;;12.74;79.74;100855.50;5085852;28;20044;-77
2022/05/30 00:54:50;;;;;;;11.40;2.10;;;;;;;12.75;79.96;100859.84;5087203;28;20150;-76
2022/05/30 00:57:23;;;;;;;11.38;2.47;;;;;;;12.74;79.33;100859.09;5079553;28;20040;-76
2022/05/30 01:00:08;;;;;;;10.23;2.53;;;;;;;12.76;80.11;100850.34;5080111;28;20056;-76
2022/05/30 01:02:38;;;;;;;18.08;2.50;;;;;;;12.75;80.27;100848.75;5075032;28;20043;-77
2022/05/30 01:07:53;;;;;;;11.73;1.77;;;;;;;12.69;80.67;100859.50;5077023;28;20048;-75
2022/05/30 01:10:22;;;;;;;16.83;2.85;;;;;;;12.68;81.14;100857.94;5091443;28;20048;-75
2022/05/30 01:12:52;;;;;;;15.13;2.45;;;;;;;12.67;81.87;100861.13;5078019;28;20147;-77
2022/05/30 01:15:28;;;;;;;13.38;2.55;;;;;;;12.62;82.68;100842.09;5080347;28;20162;-75
2022/05/30 01:18:10;;;;;;;12.15;2.80;;;;;;;12.57;82.61;100854.44;5082125;28;20515;-75
2022/05/30 01:20:49;;;;;;;10.48;2.53;;;;;;;12.50;82.91;100853.72;5075070;28;20072;-76
2022/05/30 01:23:29;;;;;;;10.50;2.90;;;;;;;12.48;83.56;100848.56;5069910;28;20075;-75
2022/05/30 01:26:05;;;;;;;11.27;2.33;;;;;;;12.52;84.08;100851.31;5081022;28;20048;-76
2022/05/30 01:28:55;;;;;;;10.15;2.67;;;;;;;12.53;83.50;100847.34;5079270;28;20044;-75
2022/05/30 01:31:22;;;;;;;10.98;2.30;;;;;;;12.52;84.14;100852.09;5086677;28;20056;-76
2022/05/30 01:33:50;;;;;;;17.73;2.63;;;;;;;12.54;83.43;100849.72;5073996;28;20056;-76
2022/05/30 01:36:21;;;;;;;11.50;3.10;;;;;;;12.52;83.62;100841.00;5081529;28;20059;-76
2022/05/30 01:38:48;;;;;;;12.18;2.55;;;;;;;12.51;83.89;100844.97;5080820;28;20713;-75
2022/05/30 01:41:14;;;;;;;11.35;2.55;;;;;;;12.45;85.03;100849.38;5079029;28;20116;-77
2022/05/30 01:43:41;;;;;;;13.32;2.42;;;;;;;12.30;86.82;100845.13;5073785;28;20093;-76
2022/05/30 01:46:11;;;;;;;11.50;2.55;;;;;;;12.20;88.40;100836.84;5070617;28;20056;-75
2022/05/30 01:48:38;;;;;;;12.48;2.63;;;;;;;12.10;89.96;100840.47;5070395;28;20068;-76
2022/05/30 01:51:04;;;;;;;15.95;2.83;;;;;;;11.97;91.99;100840.13;5081461;28;20056;-75
2022/05/30 01:53:31;;;;;;;18.30;3.03;;;;;;;11.91;92.49;100838.97;5078908;28;20139;-77
2022/05/30 01:55:58;;;;;;;11.52;2.35;;;;;;;11.89;93.35;100835.03;5086479;28;20051;-75
2022/05/30 01:58:24;;;;;;;12.25;2.70;;;;;;;11.88;93.79;100834.22;5073556;28;20743;-77
2022/05/30 02:00:51;;;;;;;15.07;3.47;;;;;;;11.87;93.75;100846.53;5083675;28;20078;-75
2022/05/30 02:03:18;;;;;;;13.57;2.70;;;;;;;11.84;95.53;100841.78;5084673;28;20516;-76
2022/05/30 02:05:44;;;;;;;16.60;3.10;;;;;;;11.88;94.09;100844.56;5081448;28;20167;-78
2022/05/30 02:08:11;;;;;;;13.57;3.03;;;;;;;11.89;93.63;100846.13;5081960;28;20040;-75
2022/05/30 02:10:37;;;;;;;13.40;2.78;;;;;;;11.89;93.79;100838.59;5078427;28;20044;-75
2022/05/30 02:13:05;;;;;;;12.40;2.92;;;;;;;11.94;92.83;100840.94;5074133;28;20216;-75
2022/05/30 02:17:00;;;;;;;16.23;3.08;;;;;;;11.95;92.00;100845.28;5079536;28;20048;-75
2022/05/30 02:18:19;;;;;;;12.45;3.00;;;;;;;11.92;92.38;100840.53;5073918;28;20416;-74
2022/05/30 02:20:46;;;;;;;13.32;2.55;;;;;;;11.92;93.38;100839.78;5088722;28;20416;-77
2022/05/30 02:23:13;;;;;;;10.00;2.65;;;;;;;11.90;93.92;100836.59;5077503;28;20132;-74
2022/05/30 02:25:40;;;;;;;12.73;2.38;;;;;;;11.91;95.14;100835.44;5082967;28;20048;-74
2022/05/30 02:28:07;;;;;;;13.70;3.28;;;;;;;11.87;95.98;100838.22;5078478;28;20052;-75
2022/05/30 02:30:33;;;;;;;12.27;2.40;;;;;;;11.92;96.89;100834.22;5081030;28;20052;-76
2022/05/30 02:38:31;;;;;;;12.48;2.42;;;;;;;11.95;97.36;100836.19;5079213;28;20110;-75
2022/05/30 02:40:57;;;;;;;12.60;3.28;;;;;;;11.99;97.93;100834.19;5073264;28;20059;-75
2022/05/30 02:43:23;;;;;;;13.70;2.83;;;;;;;11.96;97.67;100833.03;5076958;28;20141;-75
2022/05/30 02:45:50;;;;;;;13.05;3.00;;;;;;;11.98;98.39;100832.63;5077078;28;20044;-75
2022/05/30 02:48:17;;;;;;;11.43;3.05;;;;;;;11.96;96.24;100835.00;5082350;28;20044;-74
2022/05/30 02:50:45;;;;;;;16.67;3.42;;;;;;;11.93;96.24;100830.25;5080820;28;20134;-75
2022/05/30 02:53:11;;;;;;;21.27;3.83;;;;;;;11.93;98.28;100830.25;5073913;28;20052;-76
2022/05/30 02:55:38;;;;;;;13.40;3.00;;;;;;;11.90;97.72;100833.84;5076372;28;20468;-75
2022/05/30 02:58:05;;;;;;;17.65;3.13;;;;;;;11.87;97.35;100832.66;5084072;28;20051;-75
2022/05/30 03:00:31;;;;;;;9.93;3.08;;;;;;;11.71;99.34;100839.88;5072774;28;20044;-75
2022/05/30 03:02:58;;;;;;;13.43;2.88;;;;;;;11.64;98.61;100831.59;5078262;28;20126;-75
2022/05/30 03:05:24;;;;;;;13.48;2.90;;;;;;;11.54;100.00;100833.16;5068527;28;20182;-77
2022/05/30 03:07:51;;;;;;;14.52;2.70;;;;;;;11.50;100.00;100837.91;5077032;28;20135;-75
2022/05/30 03:10:17;;;;;;;17.40;3.17;;;;;;;11.44;100.00;100836.75;5075438;28;20054;-75
2022/05/30 03:12:44;;;;;;;15.38;3.05;;;;;;;11.38;100.00;100843.91;5084744;28;20131;-76
2022/05/30 03:15:10;;;;;;;15.27;2.90;;;;;;;11.39;100.00;100845.47;5081636;28;20670;-75
2022/05/30 03:17:37;;;;;;;13.40;3.10;;;;;;;11.40;100.00;100843.47;5077142;28;20040;-75
2022/05/30 03:20:04;;;;;;;18.38;3.90;;;;;;;11.41;100.00;100843.06;5079962;28;20048;-75
2022/05/30 03:22:31;;;;;;;18.05;3.30;;;;;;;11.41;100.00;100843.06;5076836;28;20051;-76
2022/05/30 03:24:57;;;;;;;15.02;3.30;;;;;;;11.42;100.00;100841.91;5078703;28;20571;-75
2022/05/30 03:27:24;;;;;;;13.73;3.75;;;;;;;11.41;100.00;100837.53;5080962;28;20461;-76
2022/05/30 03:29:50;;;;;;;14.25;3.45;;;;;;;11.45;100.00;100840.31;5078486;28;20052;-75
2022/05/30 03:32:16;;;;;;;15.95;3.50;;;;;;;11.48;100.00;100843.06;5083569;28;20052;-75
2022/05/30 03:34:43;;;;;;;14.95;3.38;;;;;;;11.46;100.00;100841.88;5082269;28;20058;-75
2022/05/30 03:37:09;;;;;;;10.80;3.20;;;;;;;11.46;100.00;100844.66;5081731;28;20048;-76
2022/05/30 03:39:36;;;;;;;13.90;3.65;;;;;;;11.51;100.00;100847.03;5072891;28;20136;-75
2022/05/30 03:42:04;;;;;;;17.75;3.72;;;;;;;11.48;100.00;100845.81;5080813;28;20164;-75
2022/05/30 03:44:30;;;;;;;22.17;10.50;;;;;;;11.48;100.00;100843.06;5073894;28;20054;-74
2022/05/30 03:46:57;;;;;;;20.55;5.45;;;;;;;11.47;100.00;100847.03;5081148;28;20138;-75
2022/05/30 03:49:23;;;;;;;16.27;3.70;;;;;;;11.48;100.00;100848.59;5084278;28;20059;-76
2022/05/30 03:51:50;;;;;;;17.45;4.03;;;;;;;11.48;100.00;100854.13;5080156;28;20049;-75
2022/05/30 03:54:17;;;;;;;16.08;4.30;;;;;;;11.51;100.00;100847.03;5086768;28;20059;-75
2022/05/30 03:56:43;;;;;;;13.82;3.50;;;;;;;11.48;100.00;100842.28;5091387;28;20044;-75
2022/05/30 03:59:10;;;;;;;16.17;4.38;;;;;;;11.51;100.00;100844.25;5084751;28;20043;-77
2022/05/30 04:01:36;;;;;;;16.42;3.95;;;;;;;11.54;100.00;100846.22;5072638;28;20052;-75
2022/05/30 04:04:03;;;;;;;14.25;3.63;;;;;;;11.61;100.00;100848.97;5078208;28;20157;-75
2022/05/30 04:06:30;;;;;;;15.45;4.07;;;;;;;11.61;100.00;100843.44;5084772;28;20497;-75
2022/05/30 04:08:57;;;;;;;20.67;3.47;;;;;;;11.62;100.00;100843.06;5081351;28;20044;-75
2022/05/30 04:11:23;;;;;;;12.75;3.65;;;;;;;11.59;99.96;100840.25;5080168;28;20403;-74
2022/05/30 04:13:50;;;;;;;18.65;3.88;;;;;;;11.63;100.00;100839.09;5076980;28;20501;-74
2022/05/30 04:16:17;;;;;;;12.68;3.40;;;;;;;11.68;100.00;100840.66;5077676;28;20052;-75
2022/05/30 04:18:44;;;;;;;11.60;4.35;;;;;;;11.72;100.00;100844.22;5079504;28;20528;-77
2022/05/30 04:21:12;;;;;;;12.73;2.85;;;;;;;11.74;98.98;100848.16;5078947;28;20591;-76
2022/05/30 04:23:41;;;;;;;17.40;3.80;;;;;;;11.77;98.93;100849.31;5070232;28;20135;-74
2022/05/30 04:26:14;;;;;;;17.48;3.50;;;;;;;11.73;98.49;100837.47;5078556;28;20159;-75
2022/05/30 04:28:42;;;;;;;12.60;3.03;;;;;;;11.79;98.87;100846.97;5080157;28;20043;-74
2022/05/30 04:31:13;;;;;;;17.38;3.08;;;;;;;11.84;97.54;100849.28;5081752;28;20119;-74
2022/05/30 04:33:41;;;;;;;16.35;2.97;;;;;;;11.83;97.52;100850.50;5075960;28;20789;-75
2022/05/30 04:36:09;;;;;;;21.13;3.65;;;;;;;11.86;97.40;100853.28;5088154;28;20131;-74
2022/05/30 04:38:36;;;;;;;13.05;2.78;;;;;;;11.89;97.63;100854.44;5073951;28;20584;-75
2022/05/30 04:41:03;;;;;;;16.83;3.50;;;;;;;11.92;96.86;100850.88;5077593;28;20076;-75
2022/05/30 04:43:30;;;;;;;18.63;3.30;;;;;;;11.95;96.15;100856.38;5073630;28;20050;-75
2022/05/30 04:46:10;;;;;;;13.40;2.42;;;;;;;12.02;95.38;100858.34;5073074;28;20055;-76
2022/05/30 04:48:37;;;;;;;10.02;3.10;;;;;;;12.08;94.83;100863.06;5084259;28;20051;-75
2022/05/30 04:51:04;;;;;;;15.93;3.17;;;;;;;12.07;93.62;100874.56;5079288;28;20132;-74
2022/05/30 04:53:31;;;;;;;10.52;2.83;;;;;;;12.14;93.88;100868.97;5086527;28;20048;-74
2022/05/30 04:55:59;;;;;;;8.80;2.80;;;;;;;12.15;93.43;100868.56;5077627;28;20462;-75
2022/05/30 04:58:28;;;;;;;9.25;3.03;;;;;;;12.23;92.69;100872.09;5080555;28;20678;-75
2022/05/30 05:00:59;;;;;;;9.93;2.63;;;;;;;12.18;92.06;100869.72;5082722;28;20055;-74
2022/05/30 05:03:27;;;;;;;15.90;2.83;;;;;;;12.24;91.51;100873.69;5067174;28;20056;-75
2022/05/30 05:06:06;;;;;;;11.98;2.63;;;;;;;12.29;91.12;100873.25;5067305;28;20067;-75
2022/05/30 05:08:41;;;;;;;13.65;2.63;;;;;;;12.35;91.08;100874.41;5076213;28;20564;-76
2022/05/30 05:11:28;;;;;;;12.13;3.08;;;;;;;12.38;90.59;100879.94;5077685;28;20504;-77
2022/05/30 05:13:56;;;;;;;10.70;2.75;;;;;;;12.40;90.67;100872.00;5080303;28;20130;-76
2022/05/30 05:16:26;;;;;;;13.40;3.28;;;;;;;12.48;90.47;100878.28;5085009;28;20123;-77
2022/05/30 05:18:54;;;;;;;14.00;3.22;;;;;;;12.52;89.54;100873.53;5079962;28;20063;-78
2022/05/30 05:21:28;;;;;;;13.35;3.53;;;;;;;12.55;89.28;100883.78;5088132;28;20063;-76
2022/05/30 05:23:56;;;;;;;15.07;3.20;;;;;;;12.59;89.53;100879.03;5081930;28;20049;-75
2022/05/30 05:26:24;;;;;;;13.98;3.40;;;;;;;12.58;88.86;100882.97;5082684;28;20084;-75
2022/05/30 05:28:51;;;;;;;19.30;3.13;;;;;;;12.57;87.80;100886.97;5083186;28;20044;-76
2022/05/30 05:31:24;;;;;;;16.10;3.63;;;;;;;12.57;87.01;100884.19;5085352;28;20047;-77
2022/05/30 05:33:53;;;;;;;8.05;2.65;;;;;;;12.55;85.08;100879.03;5079170;28;20049;-75
2022/05/30 05:36:21;;;;;;;9.45;2.40;;;;;;;12.56;84.97;100880.59;5078811;28;20560;-76
2022/05/30 05:38:48;;;;;;;9.45;2.28;;;;;;;12.64;84.57;100886.91;5080477;28;20098;-79
2022/05/30 05:41:15;;;;;;;23.30;3.38;;;;;;;12.69;83.62;100881.72;5084365;28;20090;-80
2022/05/30 05:43:41;;;;;;;15.52;2.40;;;;;;;12.75;82.94;100885.66;5081008;28;20055;-81
2022/05/30 05:46:16;;;;;;;16.98;2.80;;;;;;;12.80;82.99;100893.53;5079012;28;20048;-77
2022/05/30 05:48:43;;;;;;;16.88;4.35;;;;;;;12.85;83.00;100892.31;5086863;28;20044;-78
2022/05/30 05:51:13;;;;;;;13.48;2.28;;;;;;;12.88;83.34;100897.03;5078260;28;20052;-78
2022/05/30 05:53:41;;;;;;;13.80;2.78;;;;;;;12.90;83.21;100891.88;5078628;28;20830;-79
2022/05/30 05:56:20;;;;;;;10.70;3.13;;;;;;;12.97;82.50;100894.59;5085782;28;20051;-79
2022/05/30 05:58:48;;;;;;;16.20;3.70;;;;;;;13.03;81.83;100887.44;5085013;28;20185;-79
2022/05/30 06:01:17;;;;;;;8.35;2.28;;;;;;;13.14;81.08;100882.59;5083350;28;20639;-79
2022/05/30 06:03:44;;;;;;;12.55;2.65;;;;;;;13.22;80.72;100888.88;5076802;28;20049;-79
2022/05/30 06:06:11;;;;;;;13.68;3.10;;;;;;;13.24;80.03;100886.47;5076394;28;20135;-78
2022/05/30 06:08:37;;;;;;;17.85;2.85;;;;;;;13.22;79.34;100895.19;5085572;28;20184;-78
2022/05/30 06:11:11;;;;;;;13.30;3.08;;;;;;;13.23;78.30;100896.78;5093868;28;20079;-78
2022/05/30 06:13:41;;;;;;;11.98;3.00;;;;;;;13.34;79.87;100896.69;5083043;28;20713;-80
2022/05/30 06:16:16;;;;;;;13.73;2.67;;;;;;;13.41;79.44;100897.41;5079554;28;20135;-79
2022/05/30 06:18:43;;;;;;;13.88;2.83;;;;;;;13.45;79.51;100895.38;5080643;28;20072;-80
2022/05/30 06:21:10;;;;;;;17.30;3.50;;;;;;;13.56;78.17;100903.63;5081977;28;20135;-80
2022/05/30 06:23:37;;;;;;;16.42;2.80;;;;;;;13.57;78.30;100900.41;5091105;28;20052;-80
2022/05/30 06:26:06;;;;;;;10.93;3.08;;;;;;;13.72;78.39;100901.84;5081802;28;20082;-81
2022/05/30 06:28:33;;;;;;;36.75;7.40;;;;;;;13.87;78.98;100906.03;5079133;28;20052;-81
2022/05/30 06:31:00;;;;;;;17.70;3.22;;;;;;;13.91;77.80;100906.78;5084404;28;20046;-76
2022/05/30 06:33:27;;;;;;;15.43;3.15;;;;;;;14.02;77.62;100907.47;5078102;28;20063;-77
2022/05/30 06:35:54;;;;;;;12.75;2.95;;;;;;;14.13;76.71;100907.31;5081001;28;20084;-77
2022/05/30 06:38:20;;;;;;;12.63;2.88;;;;;;;14.03;74.29;100899.88;5078016;28;20155;-78
2022/05/30 06:40:47;;;;;;;16.08;3.70;;;;;;;13.95;74.77;100901.19;5078004;28;20626;-76
2022/05/30 06:43:14;;;;;;;17.70;3.13;;;;;;;13.98;74.95;100906.72;5078828;28;20048;-76
2022/05/30 06:45:47;;;;;;;12.13;2.45;;;;;;;13.81;70.56;100907.72;5077599;28;20045;-79
2022/05/30 06:48:14;;;;;;;14.70;3.00;;;;;;;13.90;72.59;100910.00;5082523;28;20059;-76
2022/05/30 06:50:41;;;;;;;12.60;2.70;;;;;;;13.94;70.61;100903.16;5081882;28;20040;-80
2022/05/30 06:53:08;;;;;;;7.45;2.90;;;;;;;14.01;70.53;100914.22;5070037;28;20052;-75
2022/05/30 06:55:34;;;;;;;11.85;2.88;;;;;;;14.02;70.51;100913.03;5094186;28;20444;-75
2022/05/30 06:58:13;;;;;;;12.23;3.35;;;;;;;14.15;71.33;100913.28;5087153;28;20048;-79
2022/05/30 07:00:40;;;;;;;11.65;3.25;;;;;;;14.26;70.63;100920.31;5078654;28;20136;-77
2022/05/30 07:03:07;;;;;;;13.25;4.13;;;;;;;14.27;69.97;100921.88;5067093;28;20698;-70
2022/05/30 07:05:34;;;;;;;10.95;3.20;;;;;;;14.27;69.53;100918.28;5073392;28;20143;-79
2022/05/30 07:08:01;;;;;;;10.80;2.63;;;;;;;13.92;65.49;100911.16;5078820;28;20048;-75
2022/05/30 07:10:30;;;;;;;9.88;2.95;;;;;;;13.91;66.57;100917.13;5083667;28;20051;-78
2022/05/30 07:12:58;;;;;;;15.23;2.67;;;;;;;13.94;67.67;100924.66;5085709;28;20063;-75
2022/05/30 07:15:26;;;;;;;9.77;3.10;;;;;;;13.87;66.73;100931.06;5076474;28;20145;-73
2022/05/30 07:17:52;;;;;;;9.45;2.95;;;;;;;13.91;66.04;100931.81;5071017;28;20115;-77
2022/05/30 07:20:19;;;;;;;11.88;3.28;;;;;;;13.90;66.08;100935.81;5073217;28;20072;-74
2022/05/30 07:22:46;;;;;;;8.30;1.90;;;;;;;13.79;64.92;100929.59;5084214;28;20583;-74
2022/05/30 07:25:12;;;;;;;10.73;2.30;;;;;;;13.82;66.20;100934.31;5077838;28;20144;-74
2022/05/30 07:27:39;;;;;;;12.68;3.03;;;;;;;13.79;66.42;100934.34;5084992;28;20044;-73
2022/05/30 07:30:07;;;;;;;12.95;2.70;;;;;;;13.92;67.45;100938.19;5080992;28;20051;-75
2022/05/30 07:32:34;;;;;;;12.40;2.80;;;;;;;14.11;67.68;100932.00;5085886;28;20088;-74
2022/05/30 07:35:01;;;;;;;13.23;3.20;;;;;;;14.24;66.40;100936.63;5084637;28;20050;-74
2022/05/30 07:37:27;;;;;;;14.70;2.58;;;;;;;14.40;64.76;100942.38;5081126;28;20059;-74
2022/05/30 07:39:54;;;;;;;19.70;3.60;;;;;;;14.58;64.41;100942.94;5073221;28;20058;-74
2022/05/30 07:42:20;;;;;;;7.40;2.08;;;;;;;14.72;64.52;100939.94;5083917;28;20054;-75
2022/05/30 07:44:47;;;;;;;9.50;2.63;;;;;;;14.92;64.79;100937.28;5084544;28;20134;-74
2022/05/30 07:47:16;;;;;;;13.27;2.05;;;;;;;15.07;64.27;100933.84;5075091;28;20135;-70
2022/05/30 07:49:44;;;;;;;12.15;2.30;;;;;;;15.15;63.63;100938.09;5078127;28;20040;-70
2022/05/30 07:52:11;;;;;;;8.02;2.15;;;;;;;15.12;61.99;100938.16;5078589;28;20055;-72
2022/05/30 07:54:38;;;;;;;16.25;2.65;;;;;;;14.97;62.44;100934.81;5085916;28;20043;-73
2022/05/30 07:57:06;;;;;;;12.35;2.45;;;;;;;15.03;60.79;100930.34;5075086;28;20056;-76
2022/05/30 07:59:35;;;;;;;8.05;1.88;;;;;;;14.89;60.79;100929.75;5079033;28;20460;-73
2022/05/30 08:02:04;;;;;;;9.20;2.53;;;;;;;15.11;60.82;100929.00;5072349;28;20073;-74
2022/05/30 08:04:30;;;;;;;8.30;2.65;;;;;;;15.13;59.66;100932.13;5072547;28;20060;-73
2022/05/30 08:06:57;;;;;;;10.63;3.83;;;;;;;15.28;58.99;100925.13;5083849;28;20048;-75
2022/05/30 08:09:23;;;;;;;9.23;3.08;;;;;;;15.28;55.60;100938.28;5084747;28;20044;-74
2022/05/30 08:11:50;;;;;;;7.07;3.38;;;;;;;15.31;57.47;100929.06;5077735;28;20090;-74
2022/05/30 08:14:17;;;;;;;9.57;2.78;;;;;;;15.42;57.09;100930.50;5080881;28;20052;-74
2022/05/30 08:16:44;;;;;;;10.70;2.55;;;;;;;15.63;57.00;100925.75;5077451;28;20048;-77
2022/05/30 08:19:16;;;;;;;13.48;2.70;;;;;;;15.86;57.16;100920.91;5069819;28;20052;-74
2022/05/30 08:22:04;;;;;;;10.95;2.90;;;;;;;15.63;54.14;100918.19;5072585;28;20043;-74
2022/05/30 08:24:40;;;;;;;5.53;2.25;;;;;;;15.57;55.32;100925.47;5082767;28;20088;-73
2022/05/30 08:27:07;;;;;;;5.95;2.35;;;;;;;15.77;55.50;100931.84;5077852;28;20107;-74
2022/05/30 08:29:34;;;;;;;8.55;2.63;;;;;;;15.76;55.37;100933.06;5075634;28;20717;-74
2022/05/30 08:32:00;;;;;;;10.77;3.10;;;;;;;15.83;56.16;100923.78;5076420;28;20071;-74
2022/05/30 08:34:27;;;;;;;12.15;3.22;;;;;;;15.82;55.18;100933.38;5078576;28;20075;-73
2022/05/30 08:36:54;;;;;;;5.35;2.60;;;;;;;15.73;55.02;100927.56;5078233;28;20575;-74
2022/05/30 08:42:07;;;;;;;8.40;2.97;;;;;;;15.48;53.63;100938.38;5083529;28;20055;-74
2022/05/30 08:44:34;;;;;;;10.15;3.10;;;;;;;15.37;53.71;100928.22;5094244;28;20056;-75
2022/05/30 08:47:15;;;;;;;8.57;2.67;;;;;;;15.35;53.39;100933.38;5072090;28;20148;-76
2022/05/30 08:49:52;;;;;;;9.45;3.30;;;;;;;15.50;53.74;100933.94;5081506;28;20045;-77
2022/05/30 08:52:46;;;;;;;11.60;3.17;;;;;;;15.59;54.16;100931.38;5075173;28;20063;-77
2022/05/30 08:55:22;;;;;;;8.43;3.05;;;;;;;15.85;53.86;100938.06;5096025;28;20134;-76
2022/05/30 08:58:12;;;;;;;9.27;2.90;;;;;;;15.73;52.13;100933.13;5073182;28;20067;-78
2022/05/30 09:01:11;;;;;;;11.02;2.67;;;;;;;15.80;51.66;100936.59;5059555;28;20476;-78
2022/05/30 09:04:09;;;;;;;7.63;2.78;;;;;;;15.92;51.41;100932.34;5047649;28;20833;-75
2022/05/30 09:06:42;;;;;;;7.57;2.83;;;;;;;15.86;52.38;100937.66;5073320;28;20056;-75
2022/05/30 09:09:45;;;;;;;11.50;3.15;;;;;;;16.00;53.33;100937.38;5081926;28;20066;-78
2022/05/30 09:12:14;;;;;;;8.65;3.28;;;;;;;16.23;52.71;100940.09;5073026;28;20056;-75
2022/05/30 09:14:53;;;;;;;13.75;2.95;;;;;;;16.14;51.20;100934.31;5082724;28;20075;-77
2022/05/30 09:17:31;;;;;;;9.40;3.22;;;;;;;15.75;50.68;100939.06;5081957;28;20069;-76
2022/05/30 09:20:01;;;;;;;6.65;2.65;;;;;;;15.46;50.43;100942.38;5089166;28;20052;-76
2022/05/30 09:22:28;;;;;;;13.75;3.33;;;;;;;15.52;51.41;100939.09;5084133;28;20139;-76
2022/05/30 09:27:40;;;;;;;9.27;3.20;;;;;;;15.72;51.46;100931.56;5078593;28;20521;-76
2022/05/30 09:30:09;;;;;;;10.70;3.10;;;;;;;15.58;51.70;100938.19;5071182;28;20101;-76
2022/05/30 09:32:43;;;;;;;7.90;2.78;;;;;;;15.39;52.42;100936.91;5079476;28;20135;-77
2022/05/30 09:35:29;;;;;;;8.90;2.65;;;;;;;15.47;52.69;100937.59;5085427;28;20135;-77
2022/05/30 09:38:30;;;;;;;9.43;2.78;;;;;;;15.65;53.24;100929.69;5082996;28;20044;-77
2022/05/30 09:41:05;;;;;;;7.50;2.35;;;;;;;15.48;48.83;100936.38;5078317;28;20110;-77
2022/05/30 09:43:47;;;;;;;7.20;2.50;;;;;;;15.56;48.78;100932.25;5081524;28;20578;-78
2022/05/30 09:46:16;;;;;;;5.63;2.63;;;;;;;15.62;49.55;100933.31;5096971;28;20067;-79
2022/05/30 09:48:58;;;;;;;1.42;1.00;;;;;;;15.34;49.26;100942.16;5073032;28;20044;-77
2022/05/30 09:51:30;;;;;;;4.63;2.05;;;;;;;15.30;50.71;100942.22;5086641;28;20044;-74
2022/05/30 09:53:57;;;;;;;7.40;2.15;;;;;;;15.46;50.67;100942.38;5086280;28;20504;-76
2022/05/30 09:56:26;;;;;;;5.53;1.80;;;;;;;15.63;50.34;100939.69;5073989;28;20250;-79
2022/05/30 09:58:59;;;;;;;5.13;1.02;;;;;;;15.62;49.22;100943.72;5075954;28;20049;-78
2022/05/30 10:01:27;;;;;;;4.85;1.52;;;;;;;15.65;50.60;100946.41;5068164;28;20504;-78
2022/05/30 10:03:59;;;;;;;8.35;1.70;;;;;;;15.57;50.18;100941.41;5077905;28;20703;-77
2022/05/30 10:06:27;;;;;;;7.15;1.80;;;;;;;15.09;50.61;100948.13;5074611;28;20171;-75
2022/05/30 10:09:23;;;;;;;8.05;1.90;;;;;;;15.42;51.16;100952.00;5082509;28;20056;-76
2022/05/30 10:11:54;;;;;;;6.25;1.80;;;;;;;15.35;51.45;100950.09;5069831;28;20105;-72
2022/05/30 10:14:32;;;;;;;6.63;1.63;;;;;;;15.31;50.89;100949.38;5072368;28;20127;-76
2022/05/30 10:17:10;;;;;;;9.45;2.42;;;;;;;15.11;52.57;100954.09;5079394;28;20056;-76
2022/05/30 10:19:41;;;;;;;9.52;1.58;;;;;;;15.11;51.79;100956.06;5080356;28;20134;-76
2022/05/30 10:28:39;;;;;;;7.85;1.88;;;;;;;15.28;51.78;100958.59;5069572;28;20076;-76
2022/05/30 10:31:34;;;;;;;5.10;1.50;;;;;;;15.30;52.18;100956.16;5067023;28;20081;-77
2022/05/30 10:34:13;;;;;;;7.63;1.60;;;;;;;15.49;53.11;100969.41;5070666;28;20179;-75
2022/05/30 10:37:01;;;;;;;9.02;1.98;;;;;;;15.70;52.35;100965.47;5067736;28;20052;-75
2022/05/30 10:39:54;;;;;;;2.65;1.30;;;;;;;15.57;50.17;100966.50;5069866;28;20052;-75
2022/05/30 10:42:23;;;;;;;5.20;1.40;;;;;;;15.54;50.00;100968.13;5056903;28;20093;-75
2022/05/30 10:44:57;;;;;;;4.82;1.48;;;;;;;15.74;49.90;100970.97;5075283;28;20059;-75
2022/05/30 10:47:35;;;;;;;4.57;1.65;;;;;;;15.94;49.44;100963.41;5075419;28;20046;-79
2022/05/30 10:50:05;;;;;;;5.78;1.48;;;;;;;15.90;48.53;100971.88;5076202;28;20052;-77
2022/05/30 10:52:38;;;;;;;4.63;1.23;;;;;;;15.68;47.15;100972.66;5073736;28;20110;-75
2022/05/30 10:55:10;;;;;;;6.28;1.08;;;;;;;15.65;47.55;100959.59;5085478;28;20089;-77
2022/05/30 10:57:37;;;;;;;4.22;1.30;;;;;;;15.75;48.27;100964.97;5080265;28;20159;-77
2022/05/30 11:00:20;;;;;;;5.38;1.50;;;;;;;16.11;47.95;100965.09;5074899;28;20078;-77
2022/05/30 11:02:50;;;;;;;2.80;1.27;;;;;;;16.17;46.62;100964.16;5076420;28;20545;-77
2022/05/30 11:05:23;;;;;;;5.65;1.50;;;;;;;16.36;46.91;100960.56;5070320;28;20076;-77
2022/05/30 11:08:08;;;;;;;5.90;1.40;;;;;;;16.70;46.27;100957.47;5072430;28;20059;-77
2022/05/30 11:10:43;;;;;;;4.72;1.70;;;;;;;17.03;46.58;100954.31;5071463;28;20127;-76
2022/05/30 11:13:41;;;;;;;3.95;1.02;;;;;;;17.14;45.50;100954.03;5068394;28;20088;-76
2022/05/30 11:16:07;;;;;;;5.95;1.20;;;;;;;17.13;44.92;100960.84;5072062;28;20054;-76
2022/05/30 11:18:59;;;;;;;4.68;1.10;;;;;;;17.59;44.83;100964.09;5068931;28;20079;-77
2022/05/30 11:21:31;;;;;;;2.47;0.90;;;;;;;18.30;44.44;100957.38;5072918;28;20504;-77
2022/05/30 11:24:03;;;;;;;3.92;1.10;;;;;;;18.71;42.96;100953.78;5074088;28;20048;-77
2022/05/30 11:26:35;;;;;;;6.80;1.33;;;;;;;18.99;41.61;100952.88;5083802;28;20058;-77
2022/05/30 11:29:20;;;;;;;6.15;1.40;;;;;;;19.25;39.83;100957.25;5072857;28;20131;-78
2022/05/30 11:32:22;;;;;;;4.83;1.10;;;;;;;19.22;40.34;100960.94;5082083;28;20051;-78
2022/05/30 11:34:58;;;;;;;7.82;1.38;;;;;;;19.11;40.39;100954.91;5046521;28;20052;-75
2022/05/30 11:37:24;;;;;;;5.75;1.50;;;;;;;18.72;40.17;100956.13;5077510;28;20090;-76
2022/05/30 11:40:06;;;;;;;5.85;1.25;;;;;;;18.77;40.71;100966.00;5078472;28;20155;-75
2022/05/30 11:43:00;;;;;;;5.45;1.20;;;;;;;18.37;41.08;100967.59;5079535;28;20055;-75
2022/05/30 11:46:01;;;;;;;6.22;1.55;;;;;;;18.35;40.93;100964.44;5082895;28;20075;-76
2022/05/30 11:48:58;;;;;;;6.85;1.27;;;;;;;18.41;40.39;100963.47;5073315;28;20044;-75
2022/05/30 11:51:46;;;;;;;6.43;1.20;;;;;;;18.54;40.95;100972.69;5075036;28;20040;-76
2022/05/30 11:54:19;;;;;;;5.53;1.42;;;;;;;18.15;40.37;100972.22;5076036;28;20048;-75
2022/05/30 11:56:55;;;;;;;2.72;0.57;;;;;;;17.44;41.14;100962.91;5075042;28;20044;-76